首页
METAR-TAF:

METAR-TAF

机场 :

馬哈奇卡拉, 俄罗斯

纬度: 42-49-01N, 经度: 047-39-08E, 海拔: 4米

当前天气观测

该预报发布于17分钟前的09:30 UTC
风速12节,风向东南
温度 22°C
湿度 65%
气压 1009 hPa
能见度10公里或以上

METAR: URML 010930Z 14006MPS 9999 NSC 22/15 Q1009 R14/01//70 NOSIG RMK QFE757/1009

时间: 12:47 (09:47 UTC)

预报

该预报发布于1小时和47分钟前的08:00 UTC
预报有效从01日的 09点(UTC)到 01日的 18点(UTC)
风速16节,风向东转东南,有时为27节阵风
能见度10公里或以上
短暂存在
从 01日的 10点(UTC)到 01日的 15点(UTC)
散云层高于4000英尺, 积雨云.
短暂存在
从 01日的 15点(UTC)到 01日的 18点(UTC)
风速6节,风向南转南东,有时为17节阵风

TAF: URML 010800Z 0109/0118 12008G14MPS 9999 NSC TEMPO 0110/0115 SCT040CB TEMPO 0115/0118 16003G09MPS

超过4000个机场的气象观测和天气预报(METAR&TAF报告)。

可查询的气象台以黄色和红色小点在地图上表示。

将鼠标移到小点上方,可查看气象台名称。

然后点击查看天气观测和预报。

如需切换地图:点击带黑十字的绿色按钮放大地图;点击带横线的绿色按钮缩小地图;或者点击绿色箭头查看邻近地区的地图。


METAR-TAF: